Minneapolis, Minnesota
Current Conditions -  °F | °C
As of 10:53 AM on Friday 19 Dec 2014 (Local Time) from KMSP Reporting Station
Overcast Overcast  
Wind Chill: 17°   Ceiling: 1500
Heat Index: 25°   Visibility: 8mi
Dew Point: 20°   Wind: 7mph
Humidity: 81%   Direction: 140°SE
Pressure: 30.24"   Gusts: NA
Location:  44.98°N, 93.26°W
Report Text: KMSP 191653Z 14006KT 8SM BKN015 OVC026 M04/M07 A3024 RMK AO2 SLP254 T10391067
Loading
Personal Weather Stations






























Interactive Weather Map New forecast layout! Learn more

10-Day Weather Forecast

Advertisements
Track Severe Weather on mobile